Time;durP1;ratioP1;P1;durP2;ratioP2;P2;SDS_P1;SDS_P2;PMS_P1;PMS_P2;Temp;Humidity;BMP_temperature;BMP_pressure;BME280_temperature;BME280_humidity;BME280_pressure;Samples;Min_cycle;Max_cycle;Signal;HPM_P1;HPM_P2
2022/06/24 00:02:20;;;;;;;3.22;0.77;;;20.80;73.00;;;;;;4989329;28;21978;-67
2022/06/24 00:04:54;;;;;;;4.03;0.70;;;20.80;73.20;;;;;;4989776;28;20050;-66
2022/06/24 00:07:20;;;;;;;2.40;0.80;;;20.80;74.30;;;;;;4975391;28;20132;-65
2022/06/24 00:09:46;;;;;;;3.55;0.90;;;20.80;72.80;;;;;;4991820;28;20031;-66
2022/06/24 00:12:15;;;;;;;3.80;0.88;;;20.70;73.50;;;;;;4994525;28;20510;-67
2022/06/24 00:14:45;;;;;;;3.30;0.68;;;20.70;73.70;;;;;;4994446;28;20053;-67
2022/06/24 00:17:11;;;;;;;3.00;0.70;;;20.70;73.90;;;;;;4993976;28;20412;-67
2022/06/24 00:19:52;;;;;;;3.15;0.60;;;20.70;73.90;;;;;;4995774;28;20034;-66
2022/06/24 00:22:18;;;;;;;3.05;0.77;;;20.60;75.60;;;;;;4996389;28;20044;-67
2022/06/24 00:24:43;;;;;;;2.95;0.82;;;20.60;73.90;;;;;;4993986;28;20030;-67
2022/06/24 00:27:22;;;;;;;1.88;0.70;;;20.60;74.40;;;;;;4996039;28;20536;-66
2022/06/24 00:29:50;;;;;;;3.58;0.80;;;20.50;75.50;;;;;;4998959;28;20371;-67
2022/06/24 00:32:16;;;;;;;2.33;0.85;;;20.50;74.60;;;;;;4998854;28;20037;-66
2022/06/24 00:34:42;;;;;;;3.55;0.80;;;20.50;74.90;;;;;;4998556;28;20033;-67
2022/06/24 00:37:44;;;;;;;2.13;0.80;;;20.50;75.20;;;;;;4997562;28;20090;-67
2022/06/24 00:40:10;;;;;;;4.68;1.00;;;20.40;76.80;;;;;;4945561;28;20134;-67
2022/06/24 00:42:42;;;;;;;2.63;0.70;;;20.50;75.40;;;;;;4986066;28;20133;-67
2022/06/24 00:45:38;;;;;;;3.10;0.95;;;20.40;75.80;;;;;;4996996;28;20066;-67
2022/06/24 00:48:12;;;;;;;2.45;1.13;;;20.40;77.20;;;;;;4999816;28;20145;-67
2022/06/24 00:50:42;;;;;;;4.32;0.68;;;20.40;76.30;;;;;;4998150;28;20038;-65
2022/06/24 00:53:08;;;;;;;1.30;0.75;;;20.40;76.00;;;;;;4997746;28;20103;-67
2022/06/24 00:55:36;;;;;;;5.40;0.90;;;20.40;76.60;;;;;;4998045;28;20714;-67
2022/06/24 00:58:04;;;;;;;4.10;0.70;;;20.40;76.30;;;;;;4998672;28;20458;-66
2022/06/24 01:00:32;;;;;;;2.33;0.80;;;20.40;76.20;;;;;;4996349;28;20042;-67
2022/06/24 01:03:06;;;;;;;1.35;0.50;;;20.40;76.60;;;;;;4999446;28;20037;-67
2022/06/24 01:05:33;;;;;;;2.83;1.15;;;20.40;77.30;;;;;;4997894;28;20039;-67
2022/06/24 01:08:06;;;;;;;2.00;0.70;;;20.40;76.20;;;;;;4998303;28;20038;-67
2022/06/24 01:10:32;;;;;;;2.85;0.80;;;20.40;76.20;;;;;;4998636;28;20036;-67
2022/06/24 01:12:58;;;;;;;2.65;0.90;;;20.30;76.30;;;;;;4994560;28;20038;-67
2022/06/24 01:15:24;;;;;;;1.73;0.70;;;20.30;76.50;;;;;;4989329;28;20034;-68
2022/06/24 01:17:50;;;;;;;4.85;0.88;;;20.30;76.60;;;;;;4991916;28;20030;-66
2022/06/24 01:20:16;;;;;;;3.90;0.98;;;20.30;76.60;;;;;;4993522;28;20048;-66
2022/06/24 01:22:42;;;;;;;3.45;0.75;;;20.30;76.60;;;;;;4993505;28;20172;-67
2022/06/24 01:25:09;;;;;;;2.08;0.85;;;20.30;76.80;;;;;;4991061;28;20029;-67
2022/06/24 01:27:35;;;;;;;3.40;0.77;;;20.30;76.90;;;;;;4995348;28;20038;-67
2022/06/24 01:30:01;;;;;;;3.63;1.15;;;20.30;76.90;;;;;;4992290;28;20041;-67
2022/06/24 01:32:27;;;;;;;2.95;1.00;;;20.30;76.90;;;;;;4994257;28;20064;-66
2022/06/24 01:34:52;;;;;;;5.47;0.88;;;20.40;76.90;;;;;;4993404;28;20498;-67
2022/06/24 01:37:18;;;;;;;2.47;0.93;;;20.40;76.80;;;;;;4993220;28;20037;-67
2022/06/24 01:39:44;;;;;;;1.88;0.95;;;20.40;76.80;;;;;;4991375;28;20041;-67
2022/06/24 01:42:10;;;;;;;2.90;0.70;;;20.40;76.70;;;;;;4995109;28;20054;-67
2022/06/24 01:44:36;;;;;;;1.17;0.65;;;20.40;76.50;;;;;;4991939;28;20034;-67
2022/06/24 01:47:02;;;;;;;4.00;0.90;;;20.40;76.50;;;;;;4990127;28;20035;-67
2022/06/24 01:49:28;;;;;;;1.60;0.77;;;20.40;76.40;;;;;;4994400;28;20095;-67
2022/06/24 01:51:56;;;;;;;2.78;0.70;;;20.40;76.30;;;;;;4989492;28;20061;-65
2022/06/24 01:54:22;;;;;;;1.42;0.65;;;20.40;76.40;;;;;;4992219;28;20543;-67
2022/06/24 01:56:48;;;;;;;2.58;0.82;;;20.40;76.10;;;;;;4993195;28;20049;-66
2022/06/24 01:59:14;;;;;;;3.80;1.05;;;20.50;76.20;;;;;;4991676;28;20575;-67
2022/06/24 02:01:41;;;;;;;1.80;0.70;;;20.50;76.10;;;;;;4994056;28;20046;-66
2022/06/24 02:04:08;;;;;;;3.08;0.60;;;20.50;76.10;;;;;;4995486;28;20073;-67
2022/06/24 02:06:33;;;;;;;2.67;0.68;;;20.50;76.30;;;;;;4993398;28;20034;-67
2022/06/24 02:08:59;;;;;;;2.28;0.82;;;20.50;76.20;;;;;;4991945;28;20096;-65
2022/06/24 02:14:09;;;;;;;2.50;0.85;;;20.50;76.10;;;;;;4992254;28;20143;-66
2022/06/24 02:16:37;;;;;;;3.53;1.00;;;20.50;75.90;;;;;;4990321;28;20030;-67
2022/06/24 02:19:03;;;;;;;2.75;0.60;;;20.50;75.80;;;;;;4993556;28;20044;-66
2022/06/24 02:21:28;;;;;;;3.83;0.75;;;20.50;75.80;;;;;;4992054;28;20402;-67
2022/06/24 02:23:54;;;;;;;5.22;1.00;;;20.50;76.10;;;;;;4991082;28;20493;-67
2022/06/24 02:26:21;;;;;;;2.30;0.68;;;20.50;76.10;;;;;;4991146;28;20119;-65
2022/06/24 02:28:47;;;;;;;3.13;0.90;;;20.50;76.10;;;;;;4993167;28;20069;-67
2022/06/24 02:31:13;;;;;;;2.05;0.70;;;20.50;76.20;;;;;;4992592;28;20125;-67
2022/06/24 02:33:39;;;;;;;1.52;0.85;;;20.50;76.10;;;;;;4991847;28;20046;-67
2022/06/24 02:36:05;;;;;;;1.95;0.57;;;20.40;75.80;;;;;;4992476;28;20406;-67
2022/06/24 02:38:32;;;;;;;3.53;0.95;;;20.50;75.80;;;;;;4991989;28;20037;-67
2022/06/24 02:40:58;;;;;;;3.20;0.80;;;20.40;75.70;;;;;;4991486;28;20472;-67
2022/06/24 02:43:32;;;;;;;3.92;0.80;;;20.40;75.80;;;;;;4990512;28;20042;-67
2022/06/24 02:45:59;;;;;;;3.13;0.70;;;20.40;76.10;;;;;;4991805;28;20549;-67
2022/06/24 02:48:25;;;;;;;2.08;0.80;;;20.40;75.60;;;;;;4986242;28;20034;-67
2022/06/24 02:50:56;;;;;;;2.10;0.93;;;20.40;75.80;;;;;;4990501;28;20042;-68
2022/06/24 02:53:22;;;;;;;3.90;1.00;;;20.40;76.20;;;;;;4990701;28;20074;-67
2022/06/24 02:55:50;;;;;;;2.47;0.60;;;20.40;76.10;;;;;;4991254;28;20034;-67
2022/06/24 02:58:16;;;;;;;1.30;0.60;;;20.40;76.30;;;;;;4991460;28;20037;-67
2022/06/24 03:00:43;;;;;;;1.85;0.65;;;20.40;76.10;;;;;;4988968;28;20266;-67
2022/06/24 03:03:10;;;;;;;2.65;0.52;;;20.40;76.30;;;;;;4990075;28;20030;-67
2022/06/24 03:05:36;;;;;;;2.53;0.90;;;20.40;76.30;;;;;;4990683;28;20401;-67
2022/06/24 03:08:01;;;;;;;4.80;0.68;;;20.50;76.30;;;;;;4989780;28;20034;-66
2022/06/24 03:10:27;;;;;;;1.83;1.00;;;20.50;76.30;;;;;;4978513;28;20566;-67
2022/06/24 03:12:53;;;;;;;2.13;0.80;;;20.50;76.10;;;;;;4996241;28;20507;-67
2022/06/24 03:15:19;;;;;;;1.73;0.70;;;20.50;76.10;;;;;;4997198;28;20026;-68
2022/06/24 03:17:44;;;;;;;3.28;0.68;;;20.40;76.30;;;;;;4997069;28;20087;-68
2022/06/24 03:20:10;;;;;;;2.35;0.70;;;20.50;76.30;;;;;;4994673;28;20517;-67
2022/06/24 03:22:37;;;;;;;1.63;0.70;;;20.40;76.30;;;;;;4994472;28;20033;-68
2022/06/24 03:25:07;;;;;;;3.22;0.98;;;20.40;76.30;;;;;;4994141;28;20077;-67
2022/06/24 03:27:32;;;;;;;2.22;0.77;;;20.40;76.70;;;;;;4987980;28;20061;-67
2022/06/24 03:29:58;;;;;;;1.52;0.70;;;20.40;76.60;;;;;;4988942;28;20450;-66
2022/06/24 03:32:24;;;;;;;2.47;0.75;;;20.40;76.80;;;;;;4990670;28;20438;-67
2022/06/24 03:34:50;;;;;;;3.38;0.93;;;20.40;76.70;;;;;;4991725;28;20048;-66
2022/06/24 03:37:15;;;;;;;4.93;0.77;;;20.40;76.80;;;;;;4988199;28;20125;-67
2022/06/24 03:39:41;;;;;;;2.95;0.70;;;20.40;76.60;;;;;;4991831;28;20136;-67
2022/06/24 03:42:07;;;;;;;3.88;0.55;;;20.40;76.60;;;;;;4992074;28;20044;-67
2022/06/24 03:44:33;;;;;;;3.50;0.88;;;20.40;76.60;;;;;;4991218;28;20029;-67
2022/06/24 03:46:58;;;;;;;3.42;0.73;;;20.40;76.90;;;;;;4993661;28;20045;-67
2022/06/24 03:49:24;;;;;;;1.50;0.52;;;20.40;76.90;;;;;;4988345;28;20046;-67
2022/06/24 03:51:50;;;;;;;2.95;0.80;;;20.40;76.90;;;;;;4990761;28;20049;-68
2022/06/24 03:54:16;;;;;;;4.57;0.85;;;20.40;77.00;;;;;;4989610;28;20517;-66
2022/06/24 03:56:42;;;;;;;4.28;0.80;;;20.40;76.90;;;;;;4989013;28;20129;-67
2022/06/24 03:59:07;;;;;;;2.45;0.75;;;20.40;77.20;;;;;;4988016;28;20042;-67
2022/06/24 04:01:33;;;;;;;2.65;0.70;;;20.40;77.40;;;;;;4995450;28;20096;-67
2022/06/24 04:03:59;;;;;;;3.63;0.73;;;20.40;77.30;;;;;;4996609;28;20537;-67
2022/06/24 04:06:24;;;;;;;2.95;0.60;;;20.50;77.40;;;;;;4992200;28;20043;-67
2022/06/24 04:08:52;;;;;;;2.38;0.75;;;20.50;77.40;;;;;;4995388;28;20042;-68
2022/06/24 04:11:18;;;;;;;2.03;0.75;;;20.50;77.30;;;;;;4992662;28;20525;-67
2022/06/24 04:13:44;;;;;;;3.22;0.70;;;20.50;77.20;;;;;;4994210;28;20133;-67
2022/06/24 04:16:10;;;;;;;3.17;0.73;;;20.50;77.20;;;;;;4993222;28;20084;-68
2022/06/24 04:18:35;;;;;;;3.45;0.88;;;20.50;77.30;;;;;;4993822;28;20038;-67
2022/06/24 04:21:02;;;;;;;3.08;0.73;;;20.50;77.00;;;;;;4993021;28;20057;-68
2022/06/24 04:23:27;;;;;;;1.15;0.57;;;20.60;77.20;;;;;;4990998;28;20057;-67
2022/06/24 04:25:53;;;;;;;1.95;0.80;;;20.60;77.10;;;;;;4991429;28;20149;-67
2022/06/24 04:28:19;;;;;;;2.95;0.80;;;20.60;77.00;;;;;;4988131;28;20060;-66
2022/06/24 04:30:44;;;;;;;2.67;0.57;;;20.60;76.80;;;;;;4988211;28;20030;-68
2022/06/24 04:33:10;;;;;;;1.83;0.73;;;20.60;76.80;;;;;;4993514;28;20065;-65
2022/06/24 04:35:36;;;;;;;3.55;0.77;;;20.70;76.90;;;;;;4989509;28;20062;-67
2022/06/24 04:38:02;;;;;;;4.35;1.10;;;20.70;76.80;;;;;;4997393;28;20474;-68
2022/06/24 04:40:28;;;;;;;5.13;0.93;;;20.70;76.70;;;;;;4995068;28;20146;-68
2022/06/24 04:42:54;;;;;;;1.75;0.82;;;20.70;76.70;;;;;;4995462;28;20097;-67
2022/06/24 04:45:20;;;;;;;3.17;1.35;;;20.80;76.90;;;;;;4994956;28;20038;-67
2022/06/24 04:47:46;;;;;;;3.08;1.60;;;20.80;77.20;;;;;;4997202;28;20133;-66
2022/06/24 04:50:12;;;;;;;4.28;1.15;;;20.80;78.00;;;;;;4996351;28;20534;-67
2022/06/24 04:52:39;;;;;;;1.88;0.93;;;20.80;77.00;;;;;;4993347;28;20041;-68
2022/06/24 04:55:05;;;;;;;3.85;1.30;;;20.80;77.00;;;;;;4995424;28;20081;-66
2022/06/24 04:57:31;;;;;;;4.88;1.50;;;20.90;77.10;;;;;;4995847;28;20062;-68
2022/06/24 04:59:57;;;;;;;2.38;1.30;;;20.90;77.10;;;;;;4994443;28;20129;-67
2022/06/24 05:02:22;;;;;;;3.63;1.00;;;20.80;76.90;;;;;;4995172;28;20588;-67
2022/06/24 05:04:48;;;;;;;3.75;1.20;;;20.90;76.80;;;;;;4995461;28;20038;-67
2022/06/24 05:07:14;;;;;;;4.40;1.30;;;20.90;77.00;;;;;;4995106;28;20758;-68
2022/06/24 05:09:40;;;;;;;3.67;0.82;;;20.90;76.70;;;;;;4994118;28;20290;-68
2022/06/24 05:12:06;;;;;;;2.83;1.05;;;20.90;76.80;;;;;;4996565;28;20039;-68
2022/06/24 05:14:33;;;;;;;4.85;0.95;;;20.90;76.80;;;;;;4993723;28;20502;-67
2022/06/24 05:16:59;;;;;;;3.67;1.10;;;20.90;77.00;;;;;;4994065;28;20034;-67
2022/06/24 05:19:25;;;;;;;4.32;0.90;;;20.90;77.00;;;;;;4981661;28;20042;-67
2022/06/24 05:21:51;;;;;;;3.75;0.90;;;21.00;77.10;;;;;;4994375;28;20529;-68
2022/06/24 05:24:16;;;;;;;2.75;1.08;;;21.00;77.10;;;;;;4994530;28;20042;-67
2022/06/24 05:26:43;;;;;;;5.22;1.00;;;21.00;77.00;;;;;;4993294;28;20038;-67
2022/06/24 05:29:09;;;;;;;3.90;0.95;;;21.00;76.80;;;;;;4994794;28;20037;-67
2022/06/24 05:31:35;;;;;;;2.15;0.77;;;21.00;76.70;;;;;;4994851;28;20121;-67
2022/06/24 05:34:01;;;;;;;4.03;0.90;;;21.00;76.70;;;;;;4994394;28;20107;-67
2022/06/24 05:36:27;;;;;;;3.45;0.80;;;21.10;76.70;;;;;;4994463;28;20042;-67
2022/06/24 05:38:53;;;;;;;1.23;0.52;;;21.10;76.60;;;;;;4992316;28;20042;-67
2022/06/24 05:41:18;;;;;;;5.00;1.00;;;21.10;76.90;;;;;;4994097;28;20046;-67
2022/06/24 05:43:45;;;;;;;3.22;0.80;;;21.10;76.80;;;;;;4994652;28;20777;-67
2022/06/24 05:46:12;;;;;;;5.72;1.77;;;21.20;77.00;;;;;;4991519;28;20569;-68
2022/06/24 05:48:38;;;;;;;5.38;1.73;;;21.20;77.10;;;;;;4992636;28;20076;-68
2022/06/24 05:51:11;;;;;;;4.18;1.60;;;21.20;77.00;;;;;;4995340;28;20136;-67
2022/06/24 05:56:22;;;;;;;2.88;1.40;;;21.30;77.00;;;;;;4991943;28;20037;-68
2022/06/24 05:58:48;;;;;;;5.30;1.40;;;21.30;76.60;;;;;;4991907;28;20049;-68
2022/06/24 06:01:13;;;;;;;2.58;0.70;;;21.30;76.70;;;;;;4994535;28;20142;-67
2022/06/24 06:03:40;;;;;;;3.95;1.00;;;21.30;76.60;;;;;;4994614;28;20038;-67
2022/06/24 06:06:07;;;;;;;6.65;1.00;;;21.30;76.50;;;;;;4990013;28;20041;-66
2022/06/24 06:08:33;;;;;;;7.28;0.98;;;21.40;76.80;;;;;;4992065;28;20088;-67
2022/06/24 06:10:59;;;;;;;4.38;1.10;;;21.40;77.10;;;;;;4994836;28;20457;-68
2022/06/24 06:13:25;;;;;;;4.60;1.38;;;21.40;77.00;;;;;;4993966;28;20042;-67
2022/06/24 06:15:51;;;;;;;3.53;1.40;;;21.40;76.80;;;;;;4993112;28;20038;-67
2022/06/24 06:18:17;;;;;;;7.65;1.48;;;21.40;76.60;;;;;;4994668;28;20034;-68
2022/06/24 06:20:42;;;;;;;6.35;1.30;;;21.40;76.40;;;;;;4993757;28;20036;-66
2022/06/24 06:23:08;;;;;;;3.75;1.30;;;21.50;76.40;;;;;;4992415;28;20054;-67
2022/06/24 06:25:33;;;;;;;6.70;1.55;;;21.50;76.80;;;;;;4991616;28;20379;-68
2022/06/24 06:28:01;;;;;;;5.40;1.05;;;21.50;76.80;;;;;;4995856;28;20053;-67
2022/06/24 06:30:29;;;;;;;4.50;1.30;;;21.50;77.30;;;;;;4994797;28;20030;-67
2022/06/24 06:32:55;;;;;;;3.47;1.13;;;21.60;77.30;;;;;;4996151;28;20050;-68
2022/06/24 06:35:20;;;;;;;4.50;1.25;;;21.60;77.40;;;;;;4994068;28;20527;-67
2022/06/24 06:37:46;;;;;;;2.55;1.00;;;21.70;77.40;;;;;;4993030;28;20058;-66
2022/06/24 06:40:12;;;;;;;4.25;0.98;;;21.70;76.90;;;;;;4993450;28;20558;-68
2022/06/24 06:42:37;;;;;;;4.45;1.00;;;21.80;77.30;;;;;;4992148;28;21168;-66
2022/06/24 06:45:04;;;;;;;6.82;1.00;;;21.90;77.10;;;;;;4990837;28;20030;-67
2022/06/24 06:47:29;;;;;;;3.22;1.10;;;22.00;77.10;;;;;;4992797;28;20693;-68
2022/06/24 06:49:55;;;;;;;5.72;1.13;;;22.00;76.80;;;;;;4992103;28;20046;-68
2022/06/24 06:52:21;;;;;;;6.75;1.20;;;22.00;77.00;;;;;;4991918;28;20038;-68
2022/06/24 06:54:46;;;;;;;5.60;1.15;;;22.10;77.40;;;;;;4989699;28;20261;-68
2022/06/24 06:57:12;;;;;;;2.60;0.98;;;22.20;77.20;;;;;;4990205;28;20307;-68
2022/06/24 06:59:38;;;;;;;6.28;1.30;;;22.30;77.10;;;;;;4990293;28;20071;-68
2022/06/24 07:02:04;;;;;;;5.95;1.05;;;22.30;76.60;;;;;;4979904;28;20270;-67
2022/06/24 07:04:29;;;;;;;3.88;1.20;;;22.40;76.10;;;;;;4991388;28;20060;-68
2022/06/24 07:06:55;;;;;;;2.03;0.80;;;22.40;76.10;;;;;;4993432;28;20038;-68
2022/06/24 07:09:20;;;;;;;3.10;1.17;;;22.50;76.00;;;;;;4993012;28;20049;-68
2022/06/24 07:11:46;;;;;;;3.22;1.23;;;22.60;75.90;;;;;;4993216;28;20513;-68
2022/06/24 07:14:12;;;;;;;5.10;1.00;;;22.60;75.60;;;;;;4990082;28;20060;-67
2022/06/24 07:16:37;;;;;;;2.35;0.80;;;22.60;75.40;;;;;;4991274;28;20026;-67
2022/06/24 07:19:03;;;;;;;5.43;1.13;;;22.70;75.50;;;;;;4993391;28;20113;-67
2022/06/24 07:21:29;;;;;;;3.75;1.23;;;22.70;74.90;;;;;;4991787;28;20053;-68
2022/06/24 07:23:54;;;;;;;3.67;1.02;;;22.70;74.90;;;;;;4992468;28;20034;-67
2022/06/24 07:26:20;;;;;;;5.82;1.17;;;22.70;74.60;;;;;;4991658;28;20080;-69
2022/06/24 07:28:46;;;;;;;5.60;1.27;;;22.80;74.40;;;;;;4991762;28;20406;-69
2022/06/24 07:31:19;;;;;;;3.20;1.10;;;22.80;74.20;;;;;;4992496;28;20030;-68
2022/06/24 07:33:46;;;;;;;3.75;1.00;;;22.90;73.80;;;;;;4993938;28;20034;-68
2022/06/24 07:36:12;;;;;;;3.85;1.45;;;22.90;74.20;;;;;;4994802;28;20030;-68
2022/06/24 07:38:38;;;;;;;5.38;1.42;;;22.90;74.10;;;;;;4992504;28;20030;-67
2022/06/24 07:41:04;;;;;;;6.07;1.25;;;23.00;73.70;;;;;;4993476;28;20113;-68
2022/06/24 07:43:30;;;;;;;7.20;1.50;;;23.10;73.40;;;;;;4992657;28;20128;-68
2022/06/24 07:45:56;;;;;;;4.93;1.75;;;23.20;73.30;;;;;;4992856;28;20419;-69
2022/06/24 07:48:22;;;;;;;6.80;1.30;;;23.20;73.20;;;;;;4993576;28;20560;-69
2022/06/24 07:50:48;;;;;;;4.70;1.30;;;23.30;73.20;;;;;;4991379;28;20039;-68
2022/06/24 07:53:13;;;;;;;5.47;1.13;;;23.40;73.50;;;;;;4992041;28;20283;-69
2022/06/24 07:58:23;;;;;;;3.65;1.35;;;23.60;72.50;;;;;;4993646;28;20108;-69
2022/06/24 08:00:49;;;;;;;5.45;1.48;;;23.70;71.50;;;;;;4992245;28;20518;-69
2022/06/24 08:03:15;;;;;;;5.50;1.20;;;23.80;70.40;;;;;;4988202;28;20513;-68
2022/06/24 08:05:41;;;;;;;5.95;1.50;;;23.90;70.20;;;;;;4992023;28;20030;-69
2022/06/24 08:08:07;;;;;;;3.72;1.27;;;23.90;69.20;;;;;;4994469;28;20097;-71
2022/06/24 08:10:33;;;;;;;5.32;1.35;;;23.90;68.50;;;;;;4991024;28;20038;-69
2022/06/24 08:12:58;;;;;;;4.38;1.30;;;23.90;68.30;;;;;;4994462;28;20116;-69
2022/06/24 08:15:24;;;;;;;4.70;1.50;;;23.90;68.10;;;;;;4994319;28;20037;-70
2022/06/24 08:17:49;;;;;;;4.93;1.42;;;24.00;68.10;;;;;;4993317;28;20528;-69
2022/06/24 08:20:15;;;;;;;5.63;1.30;;;24.00;68.40;;;;;;4993739;28;20042;-69
2022/06/24 08:22:41;;;;;;;3.88;1.50;;;24.00;68.30;;;;;;4992459;28;20056;-71
2022/06/24 08:25:07;;;;;;;3.58;1.15;;;24.10;68.30;;;;;;4991231;28;20070;-71
2022/06/24 08:27:33;;;;;;;9.02;1.75;;;24.10;68.20;;;;;;4991240;28;20089;-69
2022/06/24 08:29:59;;;;;;;4.75;1.00;;;24.20;68.20;;;;;;4993407;28;20042;-71
2022/06/24 08:32:25;;;;;;;4.50;1.30;;;24.20;68.00;;;;;;4992009;28;20046;-71
2022/06/24 08:34:51;;;;;;;4.93;1.30;;;24.30;67.70;;;;;;4990027;28;20518;-71
2022/06/24 08:37:17;;;;;;;4.35;1.42;;;24.40;67.60;;;;;;4991494;28;20053;-71
2022/06/24 08:39:42;;;;;;;5.78;1.48;;;24.50;67.00;;;;;;4991540;28;20489;-71
2022/06/24 08:42:12;;;;;;;6.70;1.17;;;24.60;66.80;;;;;;4990133;28;20836;-70
2022/06/24 08:44:39;;;;;;;2.90;1.10;;;24.70;66.80;;;;;;4990147;28;20449;-70
2022/06/24 08:47:05;;;;;;;4.38;1.30;;;24.80;65.80;;;;;;4992436;28;20085;-71
2022/06/24 08:49:34;;;;;;;6.72;1.60;;;24.90;65.30;;;;;;4994231;28;20043;-71
2022/06/24 08:52:00;;;;;;;3.78;1.20;;;24.90;64.50;;;;;;4996095;28;20065;-70
2022/06/24 08:54:32;;;;;;;5.13;1.33;;;25.00;64.70;;;;;;4995273;28;20030;-71
2022/06/24 08:56:58;;;;;;;3.10;1.23;;;25.00;63.40;;;;;;4995374;28;20516;-70
2022/06/24 08:59:26;;;;;;;6.80;1.30;;;25.10;63.40;;;;;;4994965;28;20049;-70
2022/06/24 09:01:52;;;;;;;5.07;1.30;;;25.20;63.70;;;;;;4996376;28;20030;-70
2022/06/24 09:04:21;;;;;;;6.40;1.77;;;25.30;63.50;;;;;;4995725;28;20030;-70
2022/06/24 09:06:46;;;;;;;3.20;1.05;;;25.30;63.00;;;;;;4998355;28;20038;-70
2022/06/24 09:09:13;;;;;;;4.03;1.10;;;25.40;62.90;;;;;;4995520;28;20092;-71
2022/06/24 09:11:40;;;;;;;3.33;1.25;;;25.50;63.30;;;;;;4995715;28;20038;-70
2022/06/24 09:14:07;;;;;;;4.85;1.30;;;25.60;63.50;;;;;;4995722;28;20082;-71
2022/06/24 09:16:37;;;;;;;4.03;1.40;;;25.60;62.80;;;;;;4994858;28;20524;-70
2022/06/24 09:19:05;;;;;;;3.88;1.00;;;25.60;62.10;;;;;;4993671;28;20081;-70
2022/06/24 09:21:41;;;;;;;3.00;1.13;;;25.70;62.70;;;;;;4993777;28;20044;-68
2022/06/24 09:24:08;;;;;;;4.38;1.05;;;25.70;62.60;;;;;;4996277;28;20041;-70
2022/06/24 09:26:38;;;;;;;2.65;1.02;;;25.70;62.10;;;;;;4994825;28;20033;-69
2022/06/24 09:29:11;;;;;;;5.00;1.27;;;25.80;61.70;;;;;;4994305;28;20421;-71
2022/06/24 09:31:38;;;;;;;2.85;0.80;;;25.80;60.30;;;;;;4994004;28;20042;-70
2022/06/24 09:34:15;;;;;;;3.08;1.42;;;25.90;61.30;;;;;;4994229;28;20452;-70
2022/06/24 09:36:43;;;;;;;3.03;1.00;;;25.90;60.60;;;;;;4993402;28;20474;-70
2022/06/24 09:39:11;;;;;;;1.65;1.00;;;25.90;60.50;;;;;;4993946;28;20034;-71
2022/06/24 09:41:57;;;;;;;5.47;1.17;;;26.00;60.40;;;;;;4992318;28;20178;-71
2022/06/24 09:44:24;;;;;;;3.15;0.98;;;26.00;60.80;;;;;;4995063;28;20116;-71
2022/06/24 09:47:06;;;;;;;1.48;0.80;;;26.00;60.50;;;;;;4994131;28;20041;-71
2022/06/24 09:49:31;;;;;;;3.28;1.48;;;26.00;58.60;;;;;;4996255;28;20744;-71
2022/06/24 09:51:58;;;;;;;2.90;0.90;;;26.10;59.50;;;;;;4979041;28;20071;-70
2022/06/24 09:54:25;;;;;;;4.30;1.00;;;26.10;59.30;;;;;;4991130;28;20554;-70
2022/06/24 09:56:52;;;;;;;2.85;1.15;;;26.10;59.00;;;;;;4992749;28;20549;-70
2022/06/24 10:02:04;;;;;;;4.90;1.17;;;26.20;58.80;;;;;;4993828;28;20133;-70
2022/06/24 10:04:31;;;;;;;3.83;0.93;;;26.20;59.00;;;;;;4994486;28;20518;-71
2022/06/24 10:06:57;;;;;;;4.15;1.13;;;26.20;58.80;;;;;;4995679;28;20037;-70
2022/06/24 10:09:26;;;;;;;4.32;1.15;;;26.20;58.70;;;;;;4996252;28;20045;-70
2022/06/24 10:11:53;;;;;;;2.20;0.93;;;26.30;58.50;;;;;;4995758;28;20034;-69
2022/06/24 10:14:20;;;;;;;3.35;1.05;;;26.30;58.40;;;;;;4995492;28;20034;-70
2022/06/24 10:16:49;;;;;;;3.95;1.38;;;26.30;58.60;;;;;;4995121;28;20040;-70
2022/06/24 10:19:16;;;;;;;2.42;0.90;;;26.20;58.30;;;;;;4997093;28;20445;-70
2022/06/24 10:21:42;;;;;;;2.78;1.33;;;26.20;58.60;;;;;;4980402;28;20183;-70
2022/06/24 10:24:13;;;;;;;2.90;1.10;;;26.20;58.60;;;;;;4997576;28;20153;-70
2022/06/24 10:26:41;;;;;;;1.95;0.80;;;26.20;58.30;;;;;;4995687;28;20121;-71
2022/06/24 10:29:06;;;;;;;3.30;1.05;;;26.20;58.70;;;;;;4996455;28;20506;-70
2022/06/24 10:31:56;;;;;;;3.85;1.20;;;26.20;58.60;;;;;;4995149;28;20109;-70
2022/06/24 10:34:28;;;;;;;5.00;1.30;;;26.20;58.30;;;;;;4996035;28;20046;-70
2022/06/24 10:37:03;;;;;;;2.83;0.90;;;26.20;58.90;;;;;;4994285;28;20112;-71
2022/06/24 10:39:31;;;;;;;4.93;1.30;;;26.10;58.70;;;;;;4995535;28;20068;-69
2022/06/24 10:42:06;;;;;;;3.78;1.08;;;26.10;59.20;;;;;;4992457;28;20029;-70
2022/06/24 10:44:36;;;;;;;2.08;0.95;;;26.10;58.80;;;;;;4991834;28;20075;-70
2022/06/24 10:47:05;;;;;;;5.57;1.20;;;26.10;58.60;;;;;;4989418;28;20104;-70
2022/06/24 10:52:51;;;;;;;4.55;0.93;;;26.00;58.60;;;;;;4997611;28;20544;-70
2022/06/24 10:55:28;;;;;;;2.50;0.98;;;26.00;57.70;;;;;;4991054;28;20151;-71
2022/06/24 10:57:57;;;;;;;2.22;1.10;;;26.00;57.90;;;;;;4998259;28;20522;-71
2022/06/24 11:00:39;;;;;;;2.72;1.00;;;25.90;58.00;;;;;;4995431;28;20070;-70
2022/06/24 11:03:05;;;;;;;3.60;1.10;;;25.80;58.50;;;;;;4996565;28;20095;-70
2022/06/24 11:05:32;;;;;;;4.53;1.17;;;25.80;59.00;;;;;;4995986;28;20038;-70
2022/06/24 11:07:59;;;;;;;4.55;1.50;;;25.80;59.20;;;;;;4993527;28;20038;-69
2022/06/24 11:10:30;;;;;;;2.65;1.10;;;25.70;59.40;;;;;;4994551;28;20029;-70
2022/06/24 11:12:58;;;;;;;3.58;1.10;;;25.60;59.50;;;;;;4992580;28;20030;-71
2022/06/24 11:15:45;;;;;;;5.55;1.13;;;25.50;59.60;;;;;;4993643;28;20561;-70
2022/06/24 11:18:13;;;;;;;3.97;1.50;;;25.50;59.50;;;;;;4991637;28;20042;-70
2022/06/24 11:20:42;;;;;;;3.72;1.10;;;25.40;60.00;;;;;;4993389;28;20046;-70
2022/06/24 11:23:12;;;;;;;4.72;1.17;;;25.30;60.20;;;;;;4993652;28;20461;-70
2022/06/24 11:25:40;;;;;;;4.10;1.10;;;25.30;61.30;;;;;;4995019;28;20076;-71
2022/06/24 11:28:16;;;;;;;5.35;1.48;;;25.30;61.10;;;;;;4993263;28;20040;-70
2022/06/24 11:30:42;;;;;;;4.95;1.05;;;25.40;60.80;;;;;;4994412;28;20080;-70
2022/06/24 11:33:07;;;;;;;6.93;1.50;;;25.40;61.00;;;;;;4993666;28;20117;-70
2022/06/24 11:35:33;;;;;;;2.10;0.93;;;25.40;61.10;;;;;;4992762;28;20045;-70
2022/06/24 11:38:04;;;;;;;5.15;1.17;;;25.30;61.10;;;;;;4995149;28;20042;-70
2022/06/24 11:40:31;;;;;;;6.20;1.17;;;25.30;60.10;;;;;;4991952;28;20042;-69
2022/06/24 11:43:04;;;;;;;4.57;1.05;;;25.30;59.90;;;;;;4994520;28;20481;-70
2022/06/24 11:45:32;;;;;;;4.10;1.38;;;25.30;59.60;;;;;;4994304;28;20395;-70
2022/06/24 11:47:57;;;;;;;1.70;0.73;;;25.20;59.80;;;;;;4995265;28;20031;-70
2022/06/24 11:50:23;;;;;;;5.65;1.30;;;25.20;59.70;;;;;;4994463;28;20042;-70
2022/06/24 11:52:49;;;;;;;3.30;1.15;;;25.10;59.60;;;;;;4995338;28;20039;-70
2022/06/24 11:55:35;;;;;;;2.05;0.70;;;25.00;59.50;;;;;;4991159;28;20108;-70
2022/06/24 11:58:03;;;;;;;4.70;0.90;;;25.00;59.10;;;;;;4991150;28;20154;-70
2022/06/24 12:00:32;;;;;;;0.95;0.65;;;24.90;59.10;;;;;;4993344;28;20038;-71
2022/06/24 12:02:59;;;;;;;4.13;0.65;;;24.80;59.20;;;;;;4993216;28;20031;-69
2022/06/24 12:05:30;;;;;;;2.95;0.75;;;24.70;59.40;;;;;;4992690;28;20030;-69
2022/06/24 12:07:58;;;;;;;3.55;0.70;;;24.70;59.30;;;;;;4993519;28;20069;-70
2022/06/24 12:10:23;;;;;;;3.17;1.05;;;24.60;60.30;;;;;;4992970;28;20045;-70
2022/06/24 12:13:03;;;;;;;2.65;0.52;;;24.60;60.70;;;;;;4989236;28;20057;-70
2022/06/24 12:15:33;;;;;;;2.50;0.50;;;24.50;59.40;;;;;;4993287;28;20034;-70
2022/06/24 12:17:59;;;;;;;1.08;0.50;;;24.40;58.80;;;;;;4992072;28;20030;-69
2022/06/24 12:20:28;;;;;;;1.38;0.47;;;24.40;59.10;;;;;;4992439;28;20833;-70
2022/06/24 12:23:22;;;;;;;3.13;0.50;;;24.30;59.00;;;;;;4992710;28;20046;-71
2022/06/24 12:25:49;;;;;;;3.30;0.63;;;24.20;58.50;;;;;;4993051;28;20513;-69
2022/06/24 12:28:19;;;;;;;2.95;0.60;;;24.20;59.00;;;;;;4997090;28;20058;-70
2022/06/24 12:31:01;;;;;;;1.73;0.68;;;24.10;59.10;;;;;;4994056;28;20038;-70
2022/06/24 12:33:29;;;;;;;2.05;0.98;;;24.10;60.10;;;;;;4995466;28;20099;-70
2022/06/24 12:36:06;;;;;;;1.67;0.98;;;24.00;60.00;;;;;;4995981;28;20132;-70
2022/06/24 12:38:32;;;;;;;1.45;0.60;;;24.00;60.60;;;;;;4996435;28;20030;-70
2022/06/24 12:41:18;;;;;;;1.65;0.50;;;23.90;60.80;;;;;;4997872;28;20064;-69
2022/06/24 12:43:59;;;;;;;3.05;0.70;;;23.80;61.40;;;;;;4996120;28;20034;-69
2022/06/24 12:46:27;;;;;;;1.75;0.85;;;23.80;62.40;;;;;;4996178;28;20034;-71
2022/06/24 12:51:46;;;;;;;3.70;1.05;;;23.70;62.00;;;;;;4995308;28;20551;-68
2022/06/24 12:54:13;;;;;;;3.10;1.10;;;23.60;63.40;;;;;;4996466;28;20030;-69
2022/06/24 12:56:40;;;;;;;2.63;1.02;;;23.40;63.40;;;;;;4997460;28;20377;-68
2022/06/24 12:59:05;;;;;;;1.70;0.80;;;23.40;64.90;;;;;;4996375;28;20506;-68
2022/06/24 13:01:39;;;;;;;1.80;0.80;;;23.30;65.30;;;;;;4996772;28;20184;-68
2022/06/24 13:04:05;;;;;;;3.10;1.13;;;23.30;65.90;;;;;;4997971;28;20038;-69
2022/06/24 13:06:31;;;;;;;2.47;1.33;;;23.30;65.50;;;;;;4989976;28;20065;-67
2022/06/24 13:08:56;;;;;;;1.67;1.13;;;23.30;65.10;;;;;;4997647;28;20062;-67